Madison, KS

10:43 AM CDT on August 21, 2014 (GMT -0500)
T-K Weather Station West Hartford, Kansas | Change Station
CLOSE
Current Station
Personal Weather Station
Location: Hartford, KS
Elevation: 1129 ft
Nearby Weather Stations

Elev 1129 ft 38.28 °N, 96.05 °W | Updated 5 minutes ago

Clear
Clear
89.8 °F
Feels Like 98 °F
N
10.4
Wind Variable Wind from West

Today
High -- | Low -- °F
--% Chance of Precip.
Yesterday
High -- | Low -- °F
Precip. -- in
6:44 AM 8:09 PM
Waning Crescent, 13% visible
Pressure 29.88 in
Visibility 10.0 miles
Clouds Clear
Heat Index 98 °F
Dew Point 73 °F
Humidity 58%
Rainfall 0.00 in
Snow Depth Not available.
UV 4 out of 12
Pollen 11.10 out of 12
Air Quality Not available.
Flu Activity Not available.
METAR KEMP 211453Z AUTO 19018KT 10SM CLR 29/21 A2992 RMK AO2 SLP119 T02940211 51008

More Conditions Fewer Conditions

Pressure 29.88 in
Visibility 10.0 miles
Clouds Clear
Heat Index 98 °F
Dew Point 73 °F
Humidity 58%
Rainfall 0.00 in
Snow Depth Not available.
UV 4 out of 12
Pollen 11.10 out of 12
Air Quality Not available.
Flu Activity Not available.
METAR KEMP 211453Z AUTO 19018KT 10SM CLR 29/21 A2992 RMK AO2 SLP119 T02940211 51008

More Conditions Fewer Conditions

10-Day Weather Forecast

Almanac

Astronomy

Aug. 21, 2014 Rise Set
Actual Time 6:44 AM CDT 8:09 PM CDT
Civil Twilight 6:16 AM CDT 8:37 PM CDT
Nautical Twilight 5:43 AM CDT 9:10 PM CDT
Astronomical Twilight 5:08 AM CDT 9:44 PM CDT
Moon 3:17 AM CDT 5:37 PM CDT
Length of Visible Light 14h 20m
Length of Day
13h 25m
Tomorrow will be 2m 16s shorter.
Waning Crescent, 13% of the Moon is Illuminated
Today
Waning Crescent
Aug 25
New
Sep 2
First Quarter
Sep 8
Full
Sep 15
Last Quarter

Today's Extremes

State Highs State Lows

Community

WunderPhotos

Upload Photos

1,745,949 photos uploaded!

Nearby

Snow Depth

Station Depth Elevation
No new snow has been reported.

Earthquake Activity

City Distance Mag. Time & Date
Medford, Oklahoma 138 miles 3.0 9:13 PM CDT
2014-08-16
Medford, Oklahoma 132 miles 3.4 5:54 AM CDT
2014-08-16
Medford, Oklahoma 130 miles 2.5 7:09 AM CDT
2014-08-15
Perry, Oklahoma 136 miles 2.7 6:20 PM CDT
2014-08-14
Minimum magnitude displayed is 2.5.

Coastal Water Temperatures

Place Temperature
No Stations Reporting

Nearby Weather Stations